createdAt,value
2023-03-15T00:00:05.093Z,955.23
2023-03-15T00:01:05.023Z,955.20
2023-03-15T00:02:05.024Z,955.12
2023-03-15T00:03:04.886Z,955.19
2023-03-15T00:04:04.811Z,955.18
2023-03-15T00:05:04.749Z,955.16
2023-03-15T00:06:04.690Z,955.23
2023-03-15T00:07:04.609Z,955.27
2023-03-15T00:08:04.721Z,955.35
2023-03-15T00:09:04.473Z,955.28
2023-03-15T00:10:04.414Z,955.28
2023-03-15T00:11:04.333Z,955.30
2023-03-15T00:12:04.265Z,955.31
2023-03-15T00:13:04.193Z,955.36
2023-03-15T00:14:04.131Z,955.38
2023-03-15T00:15:04.052Z,955.35
2023-03-15T00:16:04.066Z,955.34
2023-03-15T00:17:03.907Z,955.39
2023-03-15T00:18:03.894Z,955.35
2023-03-15T00:19:03.785Z,955.36
2023-03-15T00:20:03.705Z,955.33
2023-03-15T00:21:03.632Z,955.39
2023-03-15T00:22:03.563Z,955.39
2023-03-15T00:23:03.498Z,955.36
2023-03-15T00:24:03.427Z,955.38
2023-03-15T00:25:03.353Z,955.42
2023-03-15T00:26:03.288Z,955.38
2023-03-15T00:27:03.217Z,955.37
2023-03-15T00:28:03.149Z,955.36
2023-03-15T00:29:03.078Z,955.37
2023-03-15T00:30:03.006Z,955.38
2023-03-15T00:31:02.968Z,955.39
2023-03-15T00:32:02.882Z,955.39
2023-03-15T00:33:02.801Z,955.39
2023-03-15T00:34:02.735Z,955.45
2023-03-15T00:35:02.672Z,955.46
2023-03-15T00:36:02.721Z,955.48
2023-03-15T00:37:02.567Z,955.53
2023-03-15T00:38:02.497Z,955.51
2023-03-15T00:39:02.388Z,955.51
2023-03-15T00:40:02.317Z,955.52
2023-03-15T00:41:02.249Z,955.48
2023-03-15T00:42:02.194Z,955.50
2023-03-15T00:43:02.121Z,955.45
2023-03-15T00:44:02.054Z,955.44
2023-03-15T00:45:01.973Z,955.44
2023-03-15T00:46:01.927Z,955.44
2023-03-15T00:47:01.832Z,955.42
2023-03-15T00:48:01.765Z,955.46
2023-03-15T00:49:01.688Z,955.46
2023-03-15T00:50:01.630Z,955.50
2023-03-15T00:51:01.597Z,955.54
2023-03-15T00:52:01.514Z,955.62
2023-03-15T00:53:01.418Z,955.62
2023-03-15T00:54:01.348Z,955.66
2023-03-15T00:55:01.283Z,955.66
2023-03-15T00:56:01.208Z,955.63
2023-03-15T00:57:01.141Z,955.64
2023-03-15T00:58:01.074Z,955.63
2023-03-15T00:59:00.992Z,955.65
2023-03-15T01:00:00.931Z,955.62
2023-03-15T01:01:00.861Z,955.61
2023-03-15T01:02:00.826Z,955.63
2023-03-15T01:03:00.786Z,955.63
2023-03-15T01:04:00.651Z,955.62
2023-03-15T01:05:00.584Z,955.67
2023-03-15T01:06:00.510Z,955.62
2023-03-15T01:07:00.441Z,955.66
2023-03-15T01:08:00.374Z,955.67
2023-03-15T01:09:00.305Z,955.65
2023-03-15T01:10:00.238Z,955.60
2023-03-15T01:11:00.161Z,955.53
2023-03-15T01:12:00.099Z,955.56
2023-03-15T01:13:00.031Z,955.54
2023-03-15T01:13:59.965Z,955.55
2023-03-15T01:14:59.892Z,955.61
2023-03-15T01:15:59.861Z,955.57
2023-03-15T01:16:59.755Z,955.56
2023-03-15T01:17:59.676Z,955.57
2023-03-15T01:18:59.617Z,955.59
2023-03-15T01:19:59.557Z,955.62
2023-03-15T01:20:59.487Z,955.67
2023-03-15T01:21:59.400Z,955.69
2023-03-15T01:22:59.338Z,955.72
2023-03-15T01:23:59.265Z,955.75
2023-03-15T01:24:59.199Z,955.76
2023-03-15T01:25:59.127Z,955.83
2023-03-15T01:26:59.060Z,955.82
2023-03-15T01:27:58.985Z,955.83
2023-03-15T01:28:58.955Z,955.91
2023-03-15T01:29:58.852Z,955.91
2023-03-15T01:31:00.011Z,955.94
2023-03-15T01:31:58.708Z,955.87
2023-03-15T01:32:58.687Z,955.95
2023-03-15T01:33:58.568Z,956.00
2023-03-15T01:34:58.498Z,955.97
2023-03-15T01:35:58.456Z,956.05
2023-03-15T01:36:58.358Z,956.03
2023-03-15T01:37:58.306Z,956.04
2023-03-15T01:38:58.227Z,956.06
2023-03-15T01:39:58.150Z,956.09
2023-03-15T01:40:58.089Z,956.16
2023-03-15T01:41:58.011Z,956.33
2023-03-15T01:42:57.941Z,956.45
2023-03-15T01:43:57.874Z,956.66
2023-03-15T01:44:57.808Z,956.60
2023-03-15T01:45:57.740Z,956.58
2023-03-15T01:46:57.704Z,956.61
2023-03-15T01:47:57.614Z,956.60
2023-03-15T01:48:57.530Z,956.60
2023-03-15T01:49:57.461Z,956.59
2023-03-15T01:50:57.398Z,956.62
2023-03-15T01:51:57.320Z,956.62
2023-03-15T01:52:57.261Z,956.69
2023-03-15T01:53:57.180Z,956.75
2023-03-15T01:54:57.106Z,956.76
2023-03-15T01:55:57.040Z,956.81
2023-03-15T01:56:56.962Z,956.80
2023-03-15T01:57:56.906Z,956.79
2023-03-15T01:58:56.829Z,956.82
2023-03-15T01:59:56.764Z,956.85
2023-03-15T02:00:56.733Z,956.87
2023-03-15T02:01:56.684Z,956.85
2023-03-15T02:02:56.570Z,956.85
2023-03-15T02:03:56.483Z,956.91
2023-03-15T02:04:56.414Z,956.96
2023-03-15T02:05:56.349Z,957.10
2023-03-15T02:06:56.271Z,957.10
2023-03-15T02:07:56.203Z,957.19
2023-03-15T02:08:56.140Z,957.20
2023-03-15T02:09:56.062Z,957.27
2023-03-15T02:10:56.018Z,957.24
2023-03-15T02:11:55.945Z,957.32
2023-03-15T02:12:55.864Z,957.31
2023-03-15T02:13:55.785Z,957.37
2023-03-15T02:14:55.709Z,957.41
2023-03-15T02:15:55.645Z,957.46
2023-03-15T02:16:55.574Z,957.47
2023-03-15T02:17:55.525Z,957.50
2023-03-15T02:18:55.432Z,957.49
2023-03-15T02:19:55.364Z,957.53
2023-03-15T02:20:55.286Z,957.57
2023-03-15T02:21:55.223Z,957.55
2023-03-15T02:22:55.155Z,957.53
2023-03-15T02:23:55.085Z,957.53
2023-03-15T02:24:55.014Z,957.49
2023-03-15T02:25:54.938Z,957.53
2023-03-15T02:26:54.937Z,957.51
2023-03-15T02:27:54.798Z,957.60
2023-03-15T02:28:54.730Z,957.64
2023-03-15T02:29:54.661Z,957.65
2023-03-15T02:30:54.591Z,957.71
2023-03-15T02:31:54.545Z,957.72
2023-03-15T02:32:54.497Z,957.75
2023-03-15T02:33:54.383Z,957.77
2023-03-15T02:34:54.307Z,957.80
2023-03-15T02:35:54.278Z,957.81
2023-03-15T02:36:54.207Z,957.92
2023-03-15T02:37:54.102Z,957.90
2023-03-15T02:38:54.042Z,957.98
2023-03-15T02:39:53.970Z,958.02
2023-03-15T02:40:53.894Z,958.03
2023-03-15T02:41:53.825Z,958.08
2023-03-15T02:42:53.742Z,958.09
2023-03-15T02:43:53.680Z,958.16
2023-03-15T02:44:53.612Z,958.13
2023-03-15T02:45:53.617Z,958.17
2023-03-15T02:46:53.486Z,958.18
2023-03-15T02:47:53.405Z,958.23
2023-03-15T02:48:53.330Z,958.28
2023-03-15T02:49:53.261Z,958.28
2023-03-15T02:50:53.217Z,958.29
2023-03-15T02:51:53.122Z,958.30
2023-03-15T02:52:53.050Z,958.29
2023-03-15T02:53:52.982Z,958.33
2023-03-15T02:54:52.935Z,958.38
2023-03-15T02:55:52.869Z,958.38
2023-03-15T02:56:52.785Z,958.47
2023-03-15T02:57:52.700Z,958.55
2023-03-15T02:58:52.631Z,958.57
2023-03-15T02:59:52.559Z,958.65
2023-03-15T03:00:52.512Z,958.62
2023-03-15T03:01:52.446Z,958.65
2023-03-15T03:02:52.352Z,958.68
2023-03-15T03:03:52.278Z,958.71
2023-03-15T03:04:52.211Z,958.73
2023-03-15T03:05:52.157Z,958.70
2023-03-15T03:06:52.081Z,958.77
2023-03-15T03:07:52.004Z,958.78
2023-03-15T03:08:51.932Z,958.79
2023-03-15T03:09:51.861Z,958.78
2023-03-15T03:10:51.790Z,958.83
2023-03-15T03:11:51.721Z,958.85
2023-03-15T03:12:51.646Z,958.90
2023-03-15T03:13:51.580Z,958.95
2023-03-15T03:14:51.508Z,958.98
2023-03-15T03:15:51.436Z,958.99
2023-03-15T03:16:51.479Z,959.01
2023-03-15T03:17:51.292Z,959.09
2023-03-15T03:18:51.231Z,959.12
2023-03-15T03:19:51.160Z,959.09
2023-03-15T03:20:51.084Z,959.11
2023-03-15T03:21:51.021Z,959.12
2023-03-15T03:22:50.951Z,959.11
2023-03-15T03:23:50.887Z,959.15
2023-03-15T03:24:50.802Z,959.16
2023-03-15T03:25:50.733Z,959.23
2023-03-15T03:26:50.663Z,959.26
2023-03-15T03:27:50.590Z,959.29
2023-03-15T03:28:50.521Z,959.33
2023-03-15T03:29:50.447Z,959.39
2023-03-15T03:30:50.423Z,959.43
2023-03-15T03:31:50.314Z,959.41
2023-03-15T03:32:50.301Z,959.45
2023-03-15T03:33:50.165Z,959.44
2023-03-15T03:34:50.119Z,959.44
2023-03-15T03:35:50.052Z,959.49
2023-03-15T03:36:49.955Z,959.52
2023-03-15T03:37:49.900Z,959.58
2023-03-15T03:38:49.833Z,959.58
2023-03-15T03:39:49.746Z,959.62
2023-03-15T03:40:49.677Z,959.63
2023-03-15T03:41:49.603Z,959.68
2023-03-15T03:42:49.542Z,959.69
2023-03-15T03:43:49.483Z,959.68
2023-03-15T03:44:49.395Z,959.69
2023-03-15T03:45:49.371Z,959.76
2023-03-15T03:46:49.260Z,959.77
2023-03-15T03:47:49.178Z,959.80
2023-03-15T03:48:49.125Z,959.82
2023-03-15T03:49:49.042Z,959.87
2023-03-15T03:50:48.973Z,959.92
2023-03-15T03:51:48.903Z,959.93
2023-03-15T03:52:48.833Z,959.99
2023-03-15T03:53:48.761Z,960.00
2023-03-15T03:54:48.689Z,959.94
2023-03-15T03:55:48.620Z,960.00
2023-03-15T03:56:48.546Z,959.96
2023-03-15T03:57:48.482Z,959.99
2023-03-15T03:58:48.416Z,960.00
2023-03-15T03:59:48.339Z,960.01
2023-03-15T04:00:48.276Z,960.00
2023-03-15T04:01:48.204Z,960.03
2023-03-15T04:02:48.190Z,960.04
2023-03-15T04:03:48.059Z,960.04
2023-03-15T04:04:47.996Z,960.07
2023-03-15T04:05:47.926Z,960.07
2023-03-15T04:06:47.844Z,960.09
2023-03-15T04:07:47.781Z,960.14
2023-03-15T04:08:47.701Z,960.14
2023-03-15T04:09:47.638Z,960.17
2023-03-15T04:10:47.573Z,960.17
2023-03-15T04:11:47.499Z,960.22
2023-03-15T04:12:47.435Z,960.23
2023-03-15T04:13:47.367Z,960.23
2023-03-15T04:14:47.290Z,960.21
2023-03-15T04:15:47.243Z,960.24
2023-03-15T04:16:47.146Z,960.28
2023-03-15T04:17:47.085Z,960.28
2023-03-15T04:18:47.004Z,960.31
2023-03-15T04:19:47.150Z,960.35
2023-03-15T04:20:46.974Z,960.37
2023-03-15T04:21:46.814Z,960.38
2023-03-15T04:22:46.733Z,960.39
2023-03-15T04:23:46.651Z,960.43
2023-03-15T04:24:46.588Z,960.42
2023-03-15T04:25:46.510Z,960.42
2023-03-15T04:26:46.452Z,960.39
2023-03-15T04:27:46.379Z,960.41
2023-03-15T04:28:46.305Z,960.45
2023-03-15T04:29:46.234Z,960.45
2023-03-15T04:30:46.169Z,960.48
2023-03-15T04:31:46.186Z,960.52
2023-03-15T04:32:46.078Z,960.50
2023-03-15T04:33:45.957Z,960.55
2023-03-15T04:34:45.882Z,960.55
2023-03-15T04:35:45.864Z,960.56
2023-03-15T04:36:45.768Z,960.55
2023-03-15T04:37:45.696Z,960.59
2023-03-15T04:38:45.604Z,960.57
2023-03-15T04:39:45.539Z,960.61
2023-03-15T04:40:45.466Z,960.61
2023-03-15T04:41:45.396Z,960.63
2023-03-15T04:42:45.329Z,960.63
2023-03-15T04:43:45.257Z,960.68
2023-03-15T04:44:45.203Z,960.69
2023-03-15T04:45:45.119Z,960.67
2023-03-15T04:46:45.071Z,960.76
2023-03-15T04:47:44.985Z,960.74
2023-03-15T04:48:44.934Z,960.76
2023-03-15T04:49:44.839Z,960.81
2023-03-15T04:50:44.789Z,960.82
2023-03-15T04:51:44.696Z,960.84
2023-03-15T04:52:44.631Z,960.88
2023-03-15T04:53:44.555Z,960.84
2023-03-15T04:54:44.497Z,960.87
2023-03-15T04:55:44.420Z,960.88
2023-03-15T04:56:44.380Z,960.91
2023-03-15T04:57:44.297Z,960.95
2023-03-15T04:58:44.210Z,960.92
2023-03-15T04:59:44.139Z,960.94
2023-03-15T05:00:44.126Z,960.94
2023-03-15T05:01:44.037Z,961.00
2023-03-15T05:02:43.925Z,961.02
2023-03-15T05:03:43.857Z,960.99
2023-03-15T05:04:43.790Z,961.05
2023-03-15T05:05:43.717Z,961.08
2023-03-15T05:06:43.647Z,961.08
2023-03-15T05:07:43.572Z,961.11
2023-03-15T05:08:43.502Z,961.11
2023-03-15T05:09:43.433Z,961.09
2023-03-15T05:10:43.366Z,961.11
2023-03-15T05:11:43.297Z,961.17
2023-03-15T05:12:43.220Z,961.16
2023-03-15T05:13:43.151Z,961.13
2023-03-15T05:14:43.140Z,961.18
2023-03-15T05:15:43.013Z,961.23
2023-03-15T05:16:42.966Z,961.23
2023-03-15T05:17:42.891Z,961.27
2023-03-15T05:18:42.800Z,961.31
2023-03-15T05:19:42.751Z,961.34
2023-03-15T05:20:42.664Z,961.35
2023-03-15T05:21:42.594Z,961.36
2023-03-15T05:22:42.522Z,961.41
2023-03-15T05:23:42.483Z,961.42
2023-03-15T05:24:42.380Z,961.43
2023-03-15T05:25:42.309Z,961.45
2023-03-15T05:26:42.240Z,961.47
2023-03-15T05:27:42.168Z,961.45
2023-03-15T05:28:42.123Z,961.49
2023-03-15T05:29:42.032Z,961.49
2023-03-15T05:30:41.963Z,961.54
2023-03-15T05:31:41.992Z,961.55
2023-03-15T05:32:41.838Z,961.57
2023-03-15T05:33:41.768Z,961.59
2023-03-15T05:34:41.677Z,961.61
2023-03-15T05:35:41.640Z,961.63
2023-03-15T05:36:41.534Z,961.65
2023-03-15T05:37:41.463Z,961.66
2023-03-15T05:38:41.407Z,961.70
2023-03-15T05:39:41.324Z,961.74
2023-03-15T05:40:41.252Z,961.76
2023-03-15T05:41:41.241Z,961.76
2023-03-15T05:42:41.124Z,961.83
2023-03-15T05:43:41.045Z,961.80
2023-03-15T05:44:41.004Z,961.83
2023-03-15T05:45:41.007Z,961.82
2023-03-15T05:46:40.837Z,961.82
2023-03-15T05:47:40.821Z,961.83
2023-03-15T05:48:40.693Z,961.89
2023-03-15T05:49:40.671Z,961.89
2023-03-15T05:50:40.598Z,961.90
2023-03-15T05:51:40.538Z,961.90
2023-03-15T05:52:40.443Z,961.90
2023-03-15T05:53:40.338Z,961.91
2023-03-15T05:54:40.299Z,961.97
2023-03-15T05:55:40.199Z,961.97
2023-03-15T05:56:40.127Z,961.96
2023-03-15T05:57:40.058Z,961.92
2023-03-15T05:58:39.993Z,962.01
2023-03-15T05:59:39.916Z,962.04
2023-03-15T06:00:39.845Z,962.06
2023-03-15T06:01:39.780Z,962.02
2023-03-15T06:02:39.718Z,962.01
2023-03-15T06:03:39.678Z,962.04
2023-03-15T06:04:39.572Z,962.03
2023-03-15T06:05:39.497Z,962.04
2023-03-15T06:06:39.430Z,962.04
2023-03-15T06:07:39.355Z,962.05
2023-03-15T06:08:39.341Z,962.05
2023-03-15T06:09:39.245Z,962.10
2023-03-15T06:10:39.157Z,962.05
2023-03-15T06:11:39.072Z,962.09
2023-03-15T06:12:39.002Z,962.08
2023-03-15T06:13:38.958Z,962.16
2023-03-15T06:14:38.885Z,962.18
2023-03-15T06:15:38.807Z,962.13
2023-03-15T06:16:38.781Z,962.14
2023-03-15T06:17:38.659Z,962.14
2023-03-15T06:18:38.594Z,962.15
2023-03-15T06:19:38.511Z,962.19
2023-03-15T06:20:38.476Z,962.24
2023-03-15T06:21:38.386Z,962.19
2023-03-15T06:22:38.304Z,962.22
2023-03-15T06:23:38.238Z,962.18
2023-03-15T06:24:38.166Z,962.22
2023-03-15T06:25:38.090Z,962.20
2023-03-15T06:26:38.020Z,962.25
2023-03-15T06:27:37.953Z,962.25
2023-03-15T06:28:37.899Z,962.27
2023-03-15T06:29:37.816Z,962.30
2023-03-15T06:30:37.762Z,962.31
2023-03-15T06:31:37.688Z,962.30
2023-03-15T06:32:37.627Z,962.31
2023-03-15T06:33:37.537Z,962.24
2023-03-15T06:34:37.473Z,962.29
2023-03-15T06:35:37.423Z,962.28
2023-03-15T06:36:37.321Z,962.27
2023-03-15T06:37:37.388Z,962.22
2023-03-15T06:38:37.187Z,962.27
2023-03-15T06:39:37.126Z,962.28
2023-03-15T06:40:37.053Z,962.28
2023-03-15T06:41:36.993Z,962.27
2023-03-15T06:42:36.944Z,962.27
2023-03-15T06:43:36.875Z,962.28
2023-03-15T06:44:36.764Z,962.28
2023-03-15T06:45:36.691Z,962.32
2023-03-15T06:46:36.685Z,962.32
2023-03-15T06:47:36.553Z,962.34
2023-03-15T06:48:36.492Z,962.36
2023-03-15T06:49:36.422Z,962.36
2023-03-15T06:50:46.477Z,962.38
2023-03-15T06:51:36.380Z,962.36
2023-03-15T06:52:36.210Z,962.41
2023-03-15T06:53:36.152Z,962.44
2023-03-15T06:54:36.065Z,962.45
2023-03-15T06:55:35.998Z,962.43
2023-03-15T06:56:35.926Z,962.46
2023-03-15T06:57:35.912Z,962.45
2023-03-15T06:58:35.783Z,962.50
2023-03-15T06:59:35.716Z,962.53
2023-03-15T07:00:35.687Z,962.48
2023-03-15T07:01:35.630Z,962.51
2023-03-15T07:02:35.560Z,962.53
2023-03-15T07:03:35.437Z,962.57
2023-03-15T07:04:35.367Z,962.52
2023-03-15T07:05:35.298Z,962.59
2023-03-15T07:06:35.234Z,962.61
2023-03-15T07:07:35.164Z,962.60
2023-03-15T07:08:35.093Z,962.61
2023-03-15T07:09:35.058Z,962.64
2023-03-15T07:10:34.950Z,962.63
2023-03-15T07:11:34.908Z,962.65
2023-03-15T07:12:34.810Z,962.67
2023-03-15T07:13:34.742Z,962.71
2023-03-15T07:14:34.697Z,962.71
2023-03-15T07:15:34.602Z,962.67
2023-03-15T07:16:34.536Z,962.73
2023-03-15T07:17:34.466Z,962.74
2023-03-15T07:18:34.426Z,962.74
2023-03-15T07:19:35.776Z,962.74
2023-03-15T07:20:36.308Z,962.72
2023-03-15T07:21:34.254Z,962.69
2023-03-15T07:22:34.161Z,962.71
2023-03-15T07:23:34.056Z,962.77
2023-03-15T07:24:33.981Z,962.79
2023-03-15T07:25:44.904Z,962.75
2023-03-15T07:26:33.838Z,962.78
2023-03-15T07:27:33.783Z,962.85
2023-03-15T07:28:33.699Z,962.83
2023-03-15T07:29:33.652Z,962.86
2023-03-15T07:30:33.562Z,962.83
2023-03-15T07:31:33.497Z,962.86
2023-03-15T07:32:33.475Z,962.88
2023-03-15T07:33:33.354Z,962.89
2023-03-15T07:34:33.306Z,962.90
2023-03-15T07:35:33.223Z,962.89
2023-03-15T07:36:33.143Z,962.90
2023-03-15T07:37:33.074Z,962.91
2023-03-15T07:38:33.007Z,962.92
2023-03-15T07:39:32.937Z,962.89
2023-03-15T07:40:32.876Z,962.85
2023-03-15T07:41:32.791Z,962.90
2023-03-15T07:42:32.722Z,962.89
2023-03-15T07:43:32.653Z,962.89
2023-03-15T07:44:32.581Z,962.92
2023-03-15T07:45:32.537Z,962.91
2023-03-15T07:46:32.460Z,962.92
2023-03-15T07:47:32.369Z,962.88
2023-03-15T07:48:32.353Z,962.89
2023-03-15T07:49:32.284Z,962.88
2023-03-15T07:50:32.178Z,962.89
2023-03-15T07:51:32.088Z,962.92
2023-03-15T07:52:32.027Z,962.87
2023-03-15T07:53:31.982Z,962.90
2023-03-15T07:54:42.209Z,962.93
2023-03-15T07:56:38.976Z,962.87
2023-03-15T07:57:39.573Z,962.95
2023-03-15T07:58:38.623Z,962.95
2023-03-15T07:59:38.697Z,962.98
2023-03-15T08:00:38.427Z,962.95
2023-03-15T08:01:38.458Z,962.93
2023-03-15T08:02:38.298Z,962.94
2023-03-15T08:03:38.216Z,962.90
2023-03-15T08:04:38.147Z,962.83
2023-03-15T08:05:38.079Z,962.86
2023-03-15T08:06:38.035Z,962.88
2023-03-15T08:07:37.940Z,962.84
2023-03-15T08:08:37.871Z,962.82
2023-03-15T08:09:37.813Z,962.83
2023-03-15T08:10:37.742Z,962.79
2023-03-15T08:11:37.742Z,962.84
2023-03-15T08:13:59.619Z,962.90
2023-03-15T08:14:59.017Z,962.86
2023-03-15T08:15:59.070Z,962.84
2023-03-15T08:16:58.937Z,962.84
2023-03-15T08:17:58.810Z,962.90
2023-03-15T08:18:58.742Z,962.84
2023-03-15T08:19:58.693Z,962.87
2023-03-15T08:20:58.600Z,962.84
2023-03-15T08:21:58.547Z,962.85
2023-03-15T08:22:58.458Z,962.86
2023-03-15T08:23:58.390Z,962.84
2023-03-15T08:24:58.333Z,962.80
2023-03-15T08:25:58.256Z,962.81
2023-03-15T08:26:58.338Z,962.80
2023-03-15T08:31:18.482Z,962.85
2023-03-15T08:31:51.447Z,962.84
2023-03-15T08:33:56.572Z,962.83
2023-03-15T08:34:56.627Z,962.90
2023-03-15T08:35:56.474Z,962.91
2023-03-15T08:41:26.594Z,962.88
2023-03-15T08:42:26.287Z,962.88
2023-03-15T09:36:15.243Z,963.20
2023-03-15T09:37:15.299Z,963.18
2023-03-15T13:20:39.549Z,962.50
2023-03-15T13:21:39.400Z,962.47
2023-03-15T17:18:32.283Z,964.22
2023-03-15T17:19:32.140Z,964.18
